sensor_id;sensor_type;location;lat;lon;timestamp;pressure;altitude;pressure_sealevel;temperature;humidity
44457;BME280;30159;49.316;8.558;2023-06-22T00:01:33;100313.19;;;24.12;97.35
44457;BME280;30159;49.316;8.558;2023-06-22T00:04:00;100317.81;;;24.04;97.57
44457;BME280;30159;49.316;8.558;2023-06-22T00:06:26;100328.88;;;24.08;96.83
44457;BME280;30159;49.316;8.558;2023-06-22T00:08:53;100329.03;;;24.18;96.37
44457;BME280;30159;49.316;8.558;2023-06-22T00:11:20;100332.31;;;24.28;95.52
44457;BME280;30159;49.316;8.558;2023-06-22T00:13:48;100331.53;;;24.31;95.42
44457;BME280;30159;49.316;8.558;2023-06-22T00:16:16;100341.78;;;24.30;95.22
44457;BME280;30159;49.316;8.558;2023-06-22T00:18:42;100333.16;;;24.32;96.41
44457;BME280;30159;49.316;8.558;2023-06-22T00:21:12;100319.59;;;24.19;98.51
44457;BME280;30159;49.316;8.558;2023-06-22T00:23:38;100343.59;;;24.19;99.65
44457;BME280;30159;49.316;8.558;2023-06-22T00:26:06;100342.38;;;24.16;100.00
44457;BME280;30159;49.316;8.558;2023-06-22T00:28:33;100343.84;;;24.07;100.00
44457;BME280;30159;49.316;8.558;2023-06-22T00:31:01;100352.69;;;23.93;100.00
44457;BME280;30159;49.316;8.558;2023-06-22T00:33:28;100366.03;;;23.91;100.00
44457;BME280;30159;49.316;8.558;2023-06-22T00:35:54;100390.41;;;23.89;100.00
44457;BME280;30159;49.316;8.558;2023-06-22T00:38:21;100443.63;;;23.93;100.00
44457;BME280;30159;49.316;8.558;2023-06-22T00:40:47;100507.19;;;24.04;100.00
44457;BME280;30159;49.316;8.558;2023-06-22T00:43:14;100583.16;;;24.05;100.00
44457;BME280;30159;49.316;8.558;2023-06-22T00:45:41;100523.88;;;23.29;100.00
44457;BME280;30159;49.316;8.558;2023-06-22T00:48:09;100648.38;;;23.97;100.00
44457;BME280;30159;49.316;8.558;2023-06-22T00:50:36;100622.84;;;24.00;100.00
44457;BME280;30159;49.316;8.558;2023-06-22T00:53:04;100528.81;;;23.82;100.00
44457;BME280;30159;49.316;8.558;2023-06-22T00:55:34;100386.44;;;23.17;100.00
44457;BME280;30159;49.316;8.558;2023-06-22T00:58:04;100349.66;;;22.28;100.00
44457;BME280;30159;49.316;8.558;2023-06-22T01:00:33;100356.31;;;21.76;100.00
44457;BME280;30159;49.316;8.558;2023-06-22T01:03:00;100341.63;;;21.52;100.00
44457;BME280;30159;49.316;8.558;2023-06-22T01:05:27;100283.47;;;21.31;100.00
44457;BME280;30159;49.316;8.558;2023-06-22T01:08:03;100258.06;;;21.18;100.00
44457;BME280;30159;49.316;8.558;2023-06-22T01:10:36;100312.91;;;21.18;100.00
44457;BME280;30159;49.316;8.558;2023-06-22T01:13:08;100401.03;;;21.16;100.00
44457;BME280;30159;49.316;8.558;2023-06-22T01:15:40;100483.31;;;21.29;100.00
44457;BME280;30159;49.316;8.558;2023-06-22T01:18:13;100509.56;;;21.42;100.00
44457;BME280;30159;49.316;8.558;2023-06-22T01:20:42;100532.16;;;21.51;100.00
44457;BME280;30159;49.316;8.558;2023-06-22T01:23:17;100522.53;;;21.57;100.00
44457;BME280;30159;49.316;8.558;2023-06-22T01:25:53;100493.38;;;21.53;100.00
44457;BME280;30159;49.316;8.558;2023-06-22T01:28:36;100476.63;;;21.42;100.00
44457;BME280;30159;49.316;8.558;2023-06-22T01:31:04;100488.03;;;21.44;100.00
44457;BME280;30159;49.316;8.558;2023-06-22T01:33:34;100472.94;;;21.50;100.00
44457;BME280;30159;49.316;8.558;2023-06-22T01:36:02;100434.09;;;21.36;100.00
44457;BME280;30159;49.316;8.558;2023-06-22T01:38:29;100469.72;;;21.48;100.00
44457;BME280;30159;49.316;8.558;2023-06-22T01:40:57;100463.00;;;21.45;100.00
44457;BME280;30159;49.316;8.558;2023-06-22T01:43:25;100425.91;;;21.23;100.00
44457;BME280;30159;49.316;8.558;2023-06-22T01:45:54;100437.50;;;21.45;100.00
44457;BME280;30159;49.316;8.558;2023-06-22T01:48:22;100431.84;;;21.54;100.00
44457;BME280;30159;49.316;8.558;2023-06-22T01:50:51;100425.94;;;21.52;100.00
44457;BME280;30159;49.316;8.558;2023-06-22T01:53:18;100414.31;;;21.58;100.00
44457;BME280;30159;49.316;8.558;2023-06-22T01:55:44;100407.88;;;21.66;100.00
44457;BME280;30159;49.316;8.558;2023-06-22T01:58:11;100421.06;;;21.61;100.00
44457;BME280;30159;49.316;8.558;2023-06-22T02:00:38;100422.91;;;21.57;100.00
44457;BME280;30159;49.316;8.558;2023-06-22T02:03:10;100430.00;;;21.58;100.00
44457;BME280;30159;49.316;8.558;2023-06-22T02:05:39;100438.22;;;21.58;100.00
44457;BME280;30159;49.316;8.558;2023-06-22T02:08:10;100434.88;;;21.64;100.00
44457;BME280;30159;49.316;8.558;2023-06-22T02:10:38;100439.41;;;21.73;100.00
44457;BME280;30159;49.316;8.558;2023-06-22T02:13:08;100434.78;;;21.77;100.00
44457;BME280;30159;49.316;8.558;2023-06-22T02:15:36;100377.22;;;21.49;100.00
44457;BME280;30159;49.316;8.558;2023-06-22T02:18:03;100426.38;;;21.85;100.00
44457;BME280;30159;49.316;8.558;2023-06-22T02:20:32;100395.72;;;21.67;100.00
44457;BME280;30159;49.316;8.558;2023-06-22T02:22:58;100423.34;;;21.75;100.00
44457;BME280;30159;49.316;8.558;2023-06-22T02:25:25;100426.81;;;21.72;100.00
44457;BME280;30159;49.316;8.558;2023-06-22T02:27:51;100425.06;;;21.63;100.00
44457;BME280;30159;49.316;8.558;2023-06-22T02:30:18;100402.19;;;21.43;100.00
44457;BME280;30159;49.316;8.558;2023-06-22T02:32:44;100413.44;;;21.54;100.00
44457;BME280;30159;49.316;8.558;2023-06-22T02:35:11;100423.53;;;21.50;100.00
44457;BME280;30159;49.316;8.558;2023-06-22T02:37:39;100402.75;;;21.37;100.00
44457;BME280;30159;49.316;8.558;2023-06-22T02:40:08;100406.16;;;21.46;100.00
44457;BME280;30159;49.316;8.558;2023-06-22T02:42:36;100362.81;;;21.23;100.00
44457;BME280;30159;49.316;8.558;2023-06-22T02:45:03;100393.88;;;21.40;100.00
44457;BME280;30159;49.316;8.558;2023-06-22T02:47:30;100395.09;;;21.42;100.00
44457;BME280;30159;49.316;8.558;2023-06-22T02:49:56;100405.06;;;21.35;100.00
44457;BME280;30159;49.316;8.558;2023-06-22T02:52:23;100409.84;;;21.38;100.00
44457;BME280;30159;49.316;8.558;2023-06-22T02:54:51;100397.97;;;21.34;100.00
44457;BME280;30159;49.316;8.558;2023-06-22T02:57:17;100393.41;;;21.38;100.00
44457;BME280;30159;49.316;8.558;2023-06-22T02:59:44;100375.66;;;21.19;100.00
44457;BME280;30159;49.316;8.558;2023-06-22T03:02:10;100376.28;;;21.13;100.00
44457;BME280;30159;49.316;8.558;2023-06-22T03:04:37;100374.88;;;20.91;100.00
44457;BME280;30159;49.316;8.558;2023-06-22T03:07:04;100384.97;;;20.87;100.00
44457;BME280;30159;49.316;8.558;2023-06-22T03:09:31;100380.88;;;20.80;100.00
44457;BME280;30159;49.316;8.558;2023-06-22T03:11:59;100374.69;;;20.83;100.00
44457;BME280;30159;49.316;8.558;2023-06-22T03:14:25;100358.94;;;20.80;100.00
44457;BME280;30159;49.316;8.558;2023-06-22T03:16:52;100363.13;;;20.90;100.00
44457;BME280;30159;49.316;8.558;2023-06-22T03:19:18;100360.75;;;20.89;100.00
44457;BME280;30159;49.316;8.558;2023-06-22T03:21:46;100369.31;;;20.87;100.00
44457;BME280;30159;49.316;8.558;2023-06-22T03:24:13;100371.94;;;20.83;100.00
44457;BME280;30159;49.316;8.558;2023-06-22T03:26:39;100374.44;;;20.89;100.00
44457;BME280;30159;49.316;8.558;2023-06-22T03:29:07;100375.19;;;21.01;100.00
44457;BME280;30159;49.316;8.558;2023-06-22T03:31:34;100370.84;;;21.00;100.00
44457;BME280;30159;49.316;8.558;2023-06-22T03:34:00;100372.97;;;21.07;100.00
44457;BME280;30159;49.316;8.558;2023-06-22T03:36:27;100370.78;;;21.13;100.00
44457;BME280;30159;49.316;8.558;2023-06-22T03:38:53;100367.78;;;21.18;100.00
44457;BME280;30159;49.316;8.558;2023-06-22T03:41:20;100364.88;;;21.26;100.00
44457;BME280;30159;49.316;8.558;2023-06-22T03:43:47;100353.19;;;21.30;100.00
44457;BME280;30159;49.316;8.558;2023-06-22T03:46:15;100367.22;;;21.40;100.00
44457;BME280;30159;49.316;8.558;2023-06-22T03:48:41;100353.56;;;21.44;100.00
44457;BME280;30159;49.316;8.558;2023-06-22T03:51:08;100355.63;;;21.47;100.00
44457;BME280;30159;49.316;8.558;2023-06-22T03:53:34;100369.78;;;21.49;100.00
44457;BME280;30159;49.316;8.558;2023-06-22T03:56:01;100364.28;;;21.49;100.00
44457;BME280;30159;49.316;8.558;2023-06-22T03:58:28;100361.97;;;21.51;100.00
44457;BME280;30159;49.316;8.558;2023-06-22T04:00:58;100361.97;;;21.51;100.00
44457;BME280;30159;49.316;8.558;2023-06-22T04:03:26;100316.56;;;21.22;100.00
44457;BME280;30159;49.316;8.558;2023-06-22T04:05:53;100358.19;;;21.56;100.00
44457;BME280;30159;49.316;8.558;2023-06-22T04:08:19;100345.34;;;21.60;100.00
44457;BME280;30159;49.316;8.558;2023-06-22T04:10:46;100351.00;;;21.67;100.00
44457;BME280;30159;49.316;8.558;2023-06-22T04:13:12;100348.78;;;21.73;100.00
44457;BME280;30159;49.316;8.558;2023-06-22T04:15:39;100233.97;;;20.95;100.00
44457;BME280;30159;49.316;8.558;2023-06-22T04:18:05;100342.66;;;21.79;100.00
44457;BME280;30159;49.316;8.558;2023-06-22T04:20:33;100334.22;;;21.88;100.00
44457;BME280;30159;49.316;8.558;2023-06-22T04:23:00;100331.03;;;21.86;100.00
44457;BME280;30159;49.316;8.558;2023-06-22T04:25:26;100300.06;;;21.70;100.00
44457;BME280;30159;49.316;8.558;2023-06-22T04:27:53;100327.47;;;22.01;100.00
44457;BME280;30159;49.316;8.558;2023-06-22T04:30:19;100318.59;;;22.08;100.00
44457;BME280;30159;49.316;8.558;2023-06-22T04:32:46;100317.97;;;22.15;100.00
44457;BME280;30159;49.316;8.558;2023-06-22T04:35:23;100319.56;;;22.35;100.00
44457;BME280;30159;49.316;8.558;2023-06-22T04:37:52;100303.41;;;22.49;100.00
44457;BME280;30159;49.316;8.558;2023-06-22T04:40:20;100308.34;;;22.63;100.00
44457;BME280;30159;49.316;8.558;2023-06-22T04:42:47;100318.25;;;22.87;100.00
44457;BME280;30159;49.316;8.558;2023-06-22T04:45:17;100318.03;;;22.96;100.00
44457;BME280;30159;49.316;8.558;2023-06-22T04:47:44;100292.59;;;23.03;100.00
44457;BME280;30159;49.316;8.558;2023-06-22T04:50:10;100300.81;;;23.22;100.00
44457;BME280;30159;49.316;8.558;2023-06-22T04:52:37;100275.13;;;23.14;100.00
44457;BME280;30159;49.316;8.558;2023-06-22T04:55:06;100187.56;;;22.74;100.00
44457;BME280;30159;49.316;8.558;2023-06-22T04:57:34;100281.56;;;23.22;100.00
44457;BME280;30159;49.316;8.558;2023-06-22T05:00:01;100296.00;;;23.42;100.00
44457;BME280;30159;49.316;8.558;2023-06-22T05:02:37;100289.50;;;23.54;100.00
44457;BME280;30159;49.316;8.558;2023-06-22T05:05:05;100299.72;;;23.53;100.00
44457;BME280;30159;49.316;8.558;2023-06-22T05:07:32;100297.25;;;23.71;100.00
44457;BME280;30159;49.316;8.558;2023-06-22T05:09:59;100297.38;;;23.79;100.00
44457;BME280;30159;49.316;8.558;2023-06-22T05:12:27;100299.38;;;23.82;100.00
44457;BME280;30159;49.316;8.558;2023-06-22T05:14:54;100292.75;;;24.13;100.00
44457;BME280;30159;49.316;8.558;2023-06-22T05:17:20;100294.63;;;24.39;100.00
44457;BME280;30159;49.316;8.558;2023-06-22T05:19:47;100297.25;;;24.58;100.00
44457;BME280;30159;49.316;8.558;2023-06-22T05:22:14;100249.19;;;24.59;100.00
44457;BME280;30159;49.316;8.558;2023-06-22T05:24:41;100287.44;;;25.47;100.00
44457;BME280;30159;49.316;8.558;2023-06-22T05:27:07;100244.19;;;25.17;100.00
44457;BME280;30159;49.316;8.558;2023-06-22T05:29:35;100277.88;;;25.33;100.00
44457;BME280;30159;49.316;8.558;2023-06-22T05:32:02;100267.53;;;25.78;100.00
44457;BME280;30159;49.316;8.558;2023-06-22T05:34:29;100275.78;;;26.59;98.68
44457;BME280;30159;49.316;8.558;2023-06-22T05:36:56;100267.09;;;26.57;96.46
44457;BME280;30159;49.316;8.558;2023-06-22T05:39:24;100275.06;;;27.16;94.38
44457;BME280;30159;49.316;8.558;2023-06-22T05:41:51;100280.63;;;26.98;93.75
44457;BME280;30159;49.316;8.558;2023-06-22T05:44:18;100267.91;;;27.68;91.23
44457;BME280;30159;49.316;8.558;2023-06-22T05:46:45;100280.91;;;28.85;86.96
44457;BME280;30159;49.316;8.558;2023-06-22T05:49:14;100215.66;;;28.58;81.14
44457;BME280;30159;49.316;8.558;2023-06-22T05:51:42;100272.41;;;29.13;81.43
44457;BME280;30159;49.316;8.558;2023-06-22T05:54:08;100274.56;;;29.81;79.01
44457;BME280;30159;49.316;8.558;2023-06-22T05:56:35;100269.19;;;29.18;79.49
44457;BME280;30159;49.316;8.558;2023-06-22T05:59:02;100267.75;;;28.22;82.65
44457;BME280;30159;49.316;8.558;2023-06-22T06:01:28;100258.94;;;28.45;80.79
44457;BME280;30159;49.316;8.558;2023-06-22T06:04:01;100260.16;;;29.90;79.73
44457;BME280;30159;49.316;8.558;2023-06-22T06:06:29;100270.81;;;30.30;74.58
44457;BME280;30159;49.316;8.558;2023-06-22T06:08:55;100269.81;;;31.25;73.03
44457;BME280;30159;49.316;8.558;2023-06-22T06:11:22;100289.28;;;31.72;68.91
44457;BME280;30159;49.316;8.558;2023-06-22T06:13:49;100291.84;;;31.63;66.51
44457;BME280;30159;49.316;8.558;2023-06-22T06:16:15;100175.22;;;31.58;67.79
44457;BME280;30159;49.316;8.558;2023-06-22T06:18:42;100264.78;;;30.35;71.58
44457;BME280;30159;49.316;8.558;2023-06-22T06:21:10;100257.09;;;30.12;73.10
44457;BME280;30159;49.316;8.558;2023-06-22T06:23:36;100254.81;;;30.37;71.98
44457;BME280;30159;49.316;8.558;2023-06-22T06:26:03;100246.31;;;30.48;72.98
44457;BME280;30159;49.316;8.558;2023-06-22T06:28:32;100156.81;;;30.50;70.97
44457;BME280;30159;49.316;8.558;2023-06-22T06:30:58;100260.47;;;31.59;69.06
44457;BME280;30159;49.316;8.558;2023-06-22T06:33:25;100262.47;;;31.35;69.26
44457;BME280;30159;49.316;8.558;2023-06-22T06:35:52;100264.38;;;32.41;69.32
44457;BME280;30159;49.316;8.558;2023-06-22T06:38:19;100263.78;;;33.94;60.88
44457;BME280;30159;49.316;8.558;2023-06-22T06:40:46;100252.97;;;31.96;66.72
44457;BME280;30159;49.316;8.558;2023-06-22T06:43:14;100250.78;;;31.43;68.56
44457;BME280;30159;49.316;8.558;2023-06-22T06:45:40;100251.41;;;31.07;68.48
44457;BME280;30159;49.316;8.558;2023-06-22T06:48:07;100212.63;;;31.40;66.93
44457;BME280;30159;49.316;8.558;2023-06-22T06:50:34;100244.91;;;32.74;64.15
44457;BME280;30159;49.316;8.558;2023-06-22T06:53:01;100228.31;;;32.67;64.80
44457;BME280;30159;49.316;8.558;2023-06-22T06:55:28;100238.59;;;34.74;60.87
44457;BME280;30159;49.316;8.558;2023-06-22T06:57:58;100238.09;;;33.08;63.24
44457;BME280;30159;49.316;8.558;2023-06-22T07:00:25;100235.47;;;32.68;63.07
44457;BME280;30159;49.316;8.558;2023-06-22T07:02:52;100233.53;;;33.30;62.28
44457;BME280;30159;49.316;8.558;2023-06-22T07:05:18;100235.63;;;32.61;62.80
44457;BME280;30159;49.316;8.558;2023-06-22T07:07:45;100232.56;;;30.92;68.20
44457;BME280;30159;49.316;8.558;2023-06-22T07:10:11;100218.97;;;31.17;67.94
44457;BME280;30159;49.316;8.558;2023-06-22T07:12:39;100235.38;;;31.59;66.03
44457;BME280;30159;49.316;8.558;2023-06-22T07:15:07;100241.00;;;31.95;65.59
44457;BME280;30159;49.316;8.558;2023-06-22T07:17:35;100234.09;;;31.40;66.45
44457;BME280;30159;49.316;8.558;2023-06-22T07:20:02;100211.31;;;32.25;65.13
44457;BME280;30159;49.316;8.558;2023-06-22T07:22:33;100226.44;;;31.47;67.03
44457;BME280;30159;49.316;8.558;2023-06-22T07:25:00;100205.53;;;30.34;69.51
44457;BME280;30159;49.316;8.558;2023-06-22T07:27:26;100220.75;;;30.80;70.25
44457;BME280;30159;49.316;8.558;2023-06-22T07:29:54;100232.25;;;32.53;66.57
44457;BME280;30159;49.316;8.558;2023-06-22T07:32:21;100217.78;;;32.38;63.51
44457;BME280;30159;49.316;8.558;2023-06-22T07:34:47;100186.78;;;32.52;64.14
44457;BME280;30159;49.316;8.558;2023-06-22T07:37:14;100210.31;;;32.51;65.84
44457;BME280;30159;49.316;8.558;2023-06-22T07:39:41;100228.38;;;34.16;61.96
44457;BME280;30159;49.316;8.558;2023-06-22T07:42:07;100218.88;;;35.25;57.80
44457;BME280;30159;49.316;8.558;2023-06-22T07:44:34;100184.84;;;35.01;57.84
44457;BME280;30159;49.316;8.558;2023-06-22T07:47:02;100224.50;;;35.13;58.18
44457;BME280;30159;49.316;8.558;2023-06-22T07:49:29;100236.69;;;36.20;56.22
44457;BME280;30159;49.316;8.558;2023-06-22T07:51:56;100244.66;;;37.02;54.57
44457;BME280;30159;49.316;8.558;2023-06-22T07:54:22;100228.59;;;37.77;53.90
44457;BME280;30159;49.316;8.558;2023-06-22T07:56:49;100219.31;;;34.76;56.61
44457;BME280;30159;49.316;8.558;2023-06-22T07:59:15;100194.97;;;32.92;60.73
44457;BME280;30159;49.316;8.558;2023-06-22T08:01:42;100207.88;;;33.65;59.43
44457;BME280;30159;49.316;8.558;2023-06-22T08:04:10;100213.31;;;34.87;58.31
44457;BME280;30159;49.316;8.558;2023-06-22T08:06:36;100196.09;;;35.90;56.87
44457;BME280;30159;49.316;8.558;2023-06-22T08:09:03;100213.81;;;36.31;55.20
44457;BME280;30159;49.316;8.558;2023-06-22T08:11:29;100212.63;;;37.37;53.61
44457;BME280;30159;49.316;8.558;2023-06-22T08:13:56;100176.88;;;37.28;51.33
44457;BME280;30159;49.316;8.558;2023-06-22T08:16:23;100213.84;;;35.42;55.01
44457;BME280;30159;49.316;8.558;2023-06-22T08:18:50;100212.41;;;33.58;60.37
44457;BME280;30159;49.316;8.558;2023-06-22T08:21:18;100211.03;;;32.56;62.11
44457;BME280;30159;49.316;8.558;2023-06-22T08:23:44;100207.81;;;32.21;64.60
44457;BME280;30159;49.316;8.558;2023-06-22T08:26:11;100148.28;;;32.07;66.15
44457;BME280;30159;49.316;8.558;2023-06-22T08:28:37;100207.38;;;32.22;65.51
44457;BME280;30159;49.316;8.558;2023-06-22T08:31:04;100200.81;;;31.92;63.28
44457;BME280;30159;49.316;8.558;2023-06-22T08:33:31;100167.22;;;31.60;65.16
44457;BME280;30159;49.316;8.558;2023-06-22T08:35:58;100218.72;;;31.32;66.90
44457;BME280;30159;49.316;8.558;2023-06-22T08:38:26;100214.44;;;30.76;67.60
44457;BME280;30159;49.316;8.558;2023-06-22T08:40:53;100205.22;;;30.56;69.22
44457;BME280;30159;49.316;8.558;2023-06-22T08:43:19;100213.47;;;30.90;68.94
44457;BME280;30159;49.316;8.558;2023-06-22T08:45:46;100173.06;;;30.51;68.67
44457;BME280;30159;49.316;8.558;2023-06-22T08:48:13;100210.69;;;30.36;70.53
44457;BME280;30159;49.316;8.558;2023-06-22T08:50:39;100202.41;;;30.86;71.10
44457;BME280;30159;49.316;8.558;2023-06-22T08:53:06;100215.50;;;31.09;67.77
44457;BME280;30159;49.316;8.558;2023-06-22T08:55:34;100218.91;;;31.44;68.31
44457;BME280;30159;49.316;8.558;2023-06-22T08:58:01;100225.28;;;31.85;67.58
44457;BME280;30159;49.316;8.558;2023-06-22T09:00:29;100233.53;;;32.28;66.64
44457;BME280;30159;49.316;8.558;2023-06-22T09:02:58;100241.88;;;32.48;66.09
44457;BME280;30159;49.316;8.558;2023-06-22T09:05:29;100210.38;;;32.31;65.12
44457;BME280;30159;49.316;8.558;2023-06-22T09:07:56;100184.28;;;32.38;64.31
44457;BME280;30159;49.316;8.558;2023-06-22T09:10:24;100238.06;;;32.59;64.95
44457;BME280;30159;49.316;8.558;2023-06-22T09:12:51;100225.53;;;32.83;64.86
44457;BME280;30159;49.316;8.558;2023-06-22T09:15:18;100202.44;;;32.46;62.99
44457;BME280;30159;49.316;8.558;2023-06-22T09:17:45;100202.22;;;32.21;65.02
44457;BME280;30159;49.316;8.558;2023-06-22T09:20:12;100176.63;;;31.86;65.28
44457;BME280;30159;49.316;8.558;2023-06-22T09:22:39;100167.09;;;31.23;68.21
44457;BME280;30159;49.316;8.558;2023-06-22T09:25:06;100166.50;;;31.76;66.41
44457;BME280;30159;49.316;8.558;2023-06-22T09:27:33;100167.00;;;32.27;65.75
44457;BME280;30159;49.316;8.558;2023-06-22T09:30:01;100156.81;;;32.69;62.97
44457;BME280;30159;49.316;8.558;2023-06-22T09:32:29;100153.59;;;32.54;63.84
44457;BME280;30159;49.316;8.558;2023-06-22T09:34:55;100149.72;;;32.48;63.26
44457;BME280;30159;49.316;8.558;2023-06-22T09:37:22;100150.41;;;32.20;64.29
44457;BME280;30159;49.316;8.558;2023-06-22T09:39:48;100154.00;;;32.20;65.65
44457;BME280;30159;49.316;8.558;2023-06-22T09:42:15;100132.69;;;31.54;64.52
44457;BME280;30159;49.316;8.558;2023-06-22T09:44:41;100125.34;;;30.76;66.57
44457;BME280;30159;49.316;8.558;2023-06-22T09:47:09;100153.31;;;30.93;68.80
44457;BME280;30159;49.316;8.558;2023-06-22T09:49:36;100133.56;;;31.07;67.35
44457;BME280;30159;49.316;8.558;2023-06-22T09:52:02;100133.31;;;31.21;67.52
44457;BME280;30159;49.316;8.558;2023-06-22T09:54:29;100116.59;;;31.21;67.48
44457;BME280;30159;49.316;8.558;2023-06-22T09:56:56;100132.44;;;31.24;66.57
44457;BME280;30159;49.316;8.558;2023-06-22T09:59:22;100127.81;;;31.38;68.35
44457;BME280;30159;49.316;8.558;2023-06-22T10:01:49;100134.84;;;31.66;67.21
44457;BME280;30159;49.316;8.558;2023-06-22T10:04:17;100126.16;;;31.60;65.73
44457;BME280;30159;49.316;8.558;2023-06-22T10:06:43;100111.72;;;31.25;66.19
44457;BME280;30159;49.316;8.558;2023-06-22T10:09:10;100079.25;;;31.35;66.76
44457;BME280;30159;49.316;8.558;2023-06-22T10:11:36;100079.34;;;31.12;67.43
44457;BME280;30159;49.316;8.558;2023-06-22T10:14:03;100089.75;;;31.67;66.24
44457;BME280;30159;49.316;8.558;2023-06-22T10:16:31;100090.41;;;31.35;66.64
44457;BME280;30159;49.316;8.558;2023-06-22T10:18:57;100083.31;;;31.54;65.88
44457;BME280;30159;49.316;8.558;2023-06-22T10:21:25;100082.47;;;31.14;65.44
44457;BME280;30159;49.316;8.558;2023-06-22T10:23:53;100080.72;;;30.80;67.59
44457;BME280;30159;49.316;8.558;2023-06-22T10:26:20;100066.84;;;30.76;68.35
44457;BME280;30159;49.316;8.558;2023-06-22T10:28:46;100044.50;;;30.36;68.26
44457;BME280;30159;49.316;8.558;2023-06-22T10:31:13;100076.28;;;30.82;68.83
44457;BME280;30159;49.316;8.558;2023-06-22T10:33:41;100074.44;;;31.19;66.67
44457;BME280;30159;49.316;8.558;2023-06-22T10:36:09;100073.41;;;31.09;66.61
44457;BME280;30159;49.316;8.558;2023-06-22T10:38:37;100071.72;;;30.96;67.40
44457;BME280;30159;49.316;8.558;2023-06-22T10:41:03;100073.00;;;31.11;66.85
44457;BME280;30159;49.316;8.558;2023-06-22T10:43:30;100063.91;;;31.27;66.13
44457;BME280;30159;49.316;8.558;2023-06-22T10:45:56;100059.06;;;31.31;66.96
44457;BME280;30159;49.316;8.558;2023-06-22T10:48:23;100068.06;;;31.59;67.31
44457;BME280;30159;49.316;8.558;2023-06-22T10:50:49;100071.41;;;31.86;65.36
44457;BME280;30159;49.316;8.558;2023-06-22T10:53:16;100062.53;;;31.35;66.46
44457;BME280;30159;49.316;8.558;2023-06-22T10:55:44;100059.09;;;31.67;68.06
44457;BME280;30159;49.316;8.558;2023-06-22T10:58:10;100050.50;;;31.78;66.75
44457;BME280;30159;49.316;8.558;2023-06-22T11:00:37;100048.81;;;32.01;63.83
44457;BME280;30159;49.316;8.558;2023-06-22T11:03:03;100036.97;;;31.93;63.51
44457;BME280;30159;49.316;8.558;2023-06-22T11:05:30;100039.81;;;32.09;65.54
44457;BME280;30159;49.316;8.558;2023-06-22T11:07:56;100026.50;;;32.46;63.59
44457;BME280;30159;49.316;8.558;2023-06-22T11:10:23;100019.00;;;32.89;63.02
44457;BME280;30159;49.316;8.558;2023-06-22T11:12:52;100028.06;;;33.22;62.30
44457;BME280;30159;49.316;8.558;2023-06-22T11:15:20;100030.09;;;33.34;60.84
44457;BME280;30159;49.316;8.558;2023-06-22T11:17:47;100036.19;;;33.58;61.07
44457;BME280;30159;49.316;8.558;2023-06-22T11:20:13;100040.44;;;33.63;59.72
44457;BME280;30159;49.316;8.558;2023-06-22T11:22:40;100036.75;;;33.79;60.88
44457;BME280;30159;49.316;8.558;2023-06-22T11:25:08;100026.06;;;33.35;60.51
44457;BME280;30159;49.316;8.558;2023-06-22T11:27:36;100031.56;;;32.97;60.55
44457;BME280;30159;49.316;8.558;2023-06-22T11:30:06;100043.38;;;32.88;61.99
44457;BME280;30159;49.316;8.558;2023-06-22T11:32:33;100031.88;;;33.28;62.04
44457;BME280;30159;49.316;8.558;2023-06-22T11:35:00;100028.81;;;33.65;61.02
44457;BME280;30159;49.316;8.558;2023-06-22T11:37:26;100031.03;;;34.08;59.71
44457;BME280;30159;49.316;8.558;2023-06-22T11:39:53;100021.16;;;34.16;59.94
44457;BME280;30159;49.316;8.558;2023-06-22T11:42:20;100028.84;;;34.38;59.29
44457;BME280;30159;49.316;8.558;2023-06-22T11:44:48;100020.41;;;34.16;59.51
44457;BME280;30159;49.316;8.558;2023-06-22T11:47:16;100016.69;;;34.06;58.74
44457;BME280;30159;49.316;8.558;2023-06-22T11:49:43;100009.50;;;34.05;59.24
44457;BME280;30159;49.316;8.558;2023-06-22T11:52:09;100022.25;;;34.32;58.86
44457;BME280;30159;49.316;8.558;2023-06-22T11:54:36;100017.03;;;34.08;59.21
44457;BME280;30159;49.316;8.558;2023-06-22T11:57:04;99989.69;;;34.12;59.09
44457;BME280;30159;49.316;8.558;2023-06-22T11:59:30;100017.72;;;34.47;58.26
44457;BME280;30159;49.316;8.558;2023-06-22T12:01:57;100021.19;;;34.64;57.96
44457;BME280;30159;49.316;8.558;2023-06-22T12:04:25;99988.28;;;34.42;57.88
44457;BME280;30159;49.316;8.558;2023-06-22T12:06:52;100022.06;;;34.61;57.80
44457;BME280;30159;49.316;8.558;2023-06-22T12:09:18;100023.53;;;34.88;58.49
44457;BME280;30159;49.316;8.558;2023-06-22T12:11:45;100025.25;;;34.94;56.90
44457;BME280;30159;49.316;8.558;2023-06-22T12:14:11;100020.19;;;35.24;57.49
44457;BME280;30159;49.316;8.558;2023-06-22T12:16:38;100022.00;;;35.40;56.71
44457;BME280;30159;49.316;8.558;2023-06-22T12:19:04;100017.38;;;35.24;56.20
44457;BME280;30159;49.316;8.558;2023-06-22T12:21:32;100026.72;;;35.21;57.93
44457;BME280;30159;49.316;8.558;2023-06-22T12:23:59;100035.69;;;34.94;58.22
44457;BME280;30159;49.316;8.558;2023-06-22T12:26:25;100035.78;;;34.81;58.73
44457;BME280;30159;49.316;8.558;2023-06-22T12:28:52;100021.28;;;34.60;58.86
44457;BME280;30159;49.316;8.558;2023-06-22T12:31:18;100028.72;;;34.41;58.87
44457;BME280;30159;49.316;8.558;2023-06-22T12:33:45;100007.50;;;34.18;59.73
44457;BME280;30159;49.316;8.558;2023-06-22T12:36:11;100037.16;;;34.03;59.05
44457;BME280;30159;49.316;8.558;2023-06-22T12:38:39;100030.47;;;33.75;59.50
44457;BME280;30159;49.316;8.558;2023-06-22T12:41:06;100027.47;;;33.69;59.67
44457;BME280;30159;49.316;8.558;2023-06-22T12:43:32;100029.38;;;33.60;60.21
44457;BME280;30159;49.316;8.558;2023-06-22T12:45:59;100031.56;;;33.39;61.34